Time;durP1;ratioP1;P1;durP2;ratioP2;P2;SDS_P1;SDS_P2;PMS_P1;PMS_P2;Temp;Humidity;BMP_temperature;BMP_pressure;BME280_temperature;BME280_humidity;BME280_pressure;Samples;Min_cycle;Max_cycle;Signal;HPM_P1;HPM_P2
2022/10/03 00:01:33;;;;;;;20.83;4.05;;;;;;;10.57;100.00;101024.53;5026192;28;20118;-83
2022/10/03 00:04:13;;;;;;;19.98;4.65;;;;;;;10.66;100.00;101015.28;5031462;28;20046;-82
2022/10/03 00:07:17;;;;;;;16.88;3.15;;;;;;;10.73;100.00;101027.22;5034987;28;20049;-84
2022/10/03 00:09:47;;;;;;;13.38;3.05;;;;;;;10.67;100.00;101024.03;4995712;28;20234;-83
2022/10/03 00:12:41;;;;;;;23.95;3.45;;;;;;;10.68;100.00;101041.56;5031269;28;20049;-83
2022/10/03 00:15:26;;;;;;;21.13;3.70;;;;;;;10.71;100.00;101033.47;5031524;28;20053;-82
2022/10/03 00:18:07;;;;;;;24.77;3.35;;;;;;;10.68;100.00;101041.56;5030896;28;20060;-83
2022/10/03 00:20:46;;;;;;;14.23;2.88;;;;;;;10.65;100.00;101042.56;5003560;28;20145;-82
2022/10/03 00:23:42;;;;;;;15.05;3.88;;;;;;;10.70;100.00;101044.97;5011088;28;20037;-83
2022/10/03 00:26:32;;;;;;;27.73;3.97;;;;;;;10.70;100.00;101044.97;5013797;28;20088;-82
2022/10/03 00:29:20;;;;;;;23.17;3.75;;;;;;;10.67;100.00;101055.63;5023822;28;20075;-85
2022/10/03 00:32:22;;;;;;;21.27;3.92;;;;;;;10.72;100.00;101043.09;5031678;28;20055;-83
2022/10/03 00:34:49;;;;;;;25.13;4.68;;;;;;;10.71;100.00;101044.88;5030297;28;20083;-80
2022/10/03 00:37:28;;;;;;;29.17;4.10;;;;;;;10.71;100.00;101052.75;5035237;28;20050;-83
2022/10/03 00:40:04;;;;;;;22.17;3.72;;;;;;;10.73;100.00;101056.19;5014980;28;20128;-82
2022/10/03 00:42:48;;;;;;;18.40;3.35;;;;;;;10.75;100.00;101056.94;5034551;28;20460;-83
2022/10/03 00:45:34;;;;;;;19.35;4.05;;;;;;;10.73;100.00;101055.34;5029278;28;20080;-83
2022/10/03 00:48:05;;;;;;;;;;;;;;;10.73;100.00;101048.28;5029933;28;20113;-82
2022/10/03 00:50:52;;;;;;;19.08;3.75;;;;;;;10.74;100.00;101049.97;5011950;28;19931;-83
2022/10/03 00:53:49;;;;;;;19.60;3.03;;;;;;;10.77;100.00;101062.16;5019037;28;20156;-83
2022/10/03 00:56:42;;;;;;;20.33;3.25;;;;;;;10.78;100.00;101058.56;5029725;28;20037;-83
2022/10/03 01:00:00;;;;;;;21.23;3.67;;;;;;;10.70;100.00;101053.69;5014796;28;20041;-82
2022/10/03 01:02:38;;;;;;;27.50;3.80;;;;;;;10.66;100.00;101049.53;5013110;28;20054;-83
2022/10/03 01:05:05;;;;;;;23.25;3.85;;;;;;;10.67;100.00;101055.63;5015220;28;20095;-84
2022/10/03 01:07:57;;;;;;;18.83;3.25;;;;;;;10.67;100.00;101053.84;5030681;28;20428;-83
2022/10/03 01:10:40;;;;;;;22.48;3.63;;;;;;;10.62;100.00;101056.72;4989217;28;20041;-83
2022/10/03 01:13:21;;;;;;;18.80;3.42;;;;;;;10.67;100.00;101068.81;5038112;28;20298;-83
2022/10/03 01:16:00;;;;;;;19.30;3.13;;;;;;;10.69;100.00;101059.06;5024581;28;20113;-82
2022/10/03 01:18:31;;;;;;;17.33;3.00;;;;;;;10.64;100.00;101077.72;5041141;28;20049;-83
2022/10/03 01:21:05;;;;;;;25.08;5.32;;;;;;;10.64;100.00;101073.31;5042087;28;20476;-81
2022/10/03 01:24:04;;;;;;;19.73;4.28;;;;;;;10.70;100.00;101066.88;5023768;28;20077;-83
2022/10/03 01:26:51;;;;;;;27.10;4.28;;;;;;;10.67;100.00;101076.69;5034270;28;20089;-83
2022/10/03 01:32:35;;;;;;;19.73;3.65;;;;;;;10.70;100.00;101072.13;5029074;28;20046;-83
2022/10/03 01:35:17;;;;;;;17.67;3.25;;;;;;;10.77;100.00;101083.22;5029990;28;20088;-83
2022/10/03 01:38:10;;;;;;;19.83;3.97;;;;;;;10.69;100.00;101088.03;5024278;28;20078;-83
2022/10/03 01:40:52;;;;;;;24.98;3.88;;;;;;;10.73;100.00;101084.31;5019199;28;20057;-85
2022/10/03 01:43:33;;;;;;;16.73;3.28;;;;;;;10.84;100.00;101092.47;5010760;28;20050;-83
2022/10/03 01:46:16;;;;;;;21.65;2.83;;;;;;;10.77;100.00;101091.13;5028599;28;20381;-84
2022/10/03 01:49:00;;;;;;;19.35;3.03;;;;;;;10.75;100.00;101090.31;5029641;28;20055;-82
2022/10/03 01:51:47;;;;;;;19.73;2.97;;;;;;;10.75;100.00;101087.69;5035928;28;20345;-83
2022/10/03 01:54:32;;;;;;;17.55;2.90;;;;;;;10.72;100.00;101082.59;5028950;28;20084;-83
2022/10/03 01:57:18;;;;;;;24.70;3.92;;;;;;;10.75;100.00;101082.44;5016550;28;20092;-83
2022/10/03 02:00:24;;;;;;;17.58;3.13;;;;;;;10.74;100.00;101086.00;5029018;28;20424;-82
2022/10/03 02:03:19;;;;;;;20.57;2.83;;;;;;;10.76;100.00;101086.75;5005962;28;20046;-82
2022/10/03 02:06:16;;;;;;;15.32;2.97;;;;;;;10.71;100.00;101097.53;5033563;28;20480;-83
2022/10/03 02:09:11;;;;;;;20.13;2.55;;;;;;;10.70;100.00;101095.00;5028932;28;20041;-84
2022/10/03 02:11:48;;;;;;;18.33;2.97;;;;;;;10.72;100.00;101101.03;5020131;28;20049;-82
2022/10/03 02:14:31;;;;;;;23.88;2.45;;;;;;;10.75;100.00;101098.22;5035358;28;20041;-81
2022/10/03 02:17:29;;;;;;;16.67;3.08;;;;;;;10.75;100.00;101100.88;5023814;28;20433;-81
2022/10/03 02:20:27;;;;;;;23.75;3.22;;;;;;;10.74;100.00;101099.16;5012314;28;20155;-83
2022/10/03 02:22:56;;;;;;;16.95;3.83;;;;;;;10.87;100.00;101103.72;5012072;28;20053;-83
2022/10/03 02:25:58;;;;;;;12.88;2.95;;;;;;;10.83;100.00;101099.53;5028730;28;20080;-83
2022/10/03 02:28:45;;;;;;;19.33;3.42;;;;;;;10.82;100.00;101097.84;5022031;28;20056;-83
2022/10/03 02:31:43;;;;;;;18.45;3.22;;;;;;;10.82;100.00;101099.63;5022926;28;20038;-83
2022/10/03 02:34:44;;;;;;;13.85;2.80;;;;;;;10.84;100.00;101097.75;5010413;28;20080;-83
2022/10/03 02:38:04;;;;;;;18.92;3.30;;;;;;;10.85;100.00;101099.44;5016953;28;20049;-83
2022/10/03 02:40:46;;;;;;;17.50;2.88;;;;;;;10.88;100.00;101102.78;5027519;28;20061;-84
2022/10/03 02:43:26;;;;;;;22.00;3.00;;;;;;;10.90;100.00;101097.44;5029109;28;20065;-81
2022/10/03 02:46:02;;;;;;;16.17;2.47;;;;;;;10.93;100.00;101104.31;5027132;28;20112;-83
2022/10/03 02:49:01;;;;;;;18.00;3.47;;;;;;;10.98;100.00;101103.13;5022354;28;20125;-84
2022/10/03 02:51:44;;;;;;;22.02;3.03;;;;;;;10.95;100.00;101116.50;5027282;28;20083;-83
2022/10/03 02:54:27;;;;;;;14.07;2.38;;;;;;;10.99;100.00;101111.91;5025505;28;20924;-85
2022/10/03 02:57:30;;;;;;;13.35;2.63;;;;;;;11.02;100.00;101109.94;5031334;28;20456;-84
2022/10/03 03:00:11;;;;;;;19.52;2.92;;;;;;;10.99;100.00;101110.13;5007998;28;20053;-82
2022/10/03 03:03:04;;;;;;;14.88;2.65;;;;;;;10.98;100.00;101118.09;5026143;28;20077;-84
2022/10/03 03:05:56;;;;;;;15.00;2.42;;;;;;;11.04;100.00;101113.38;4994215;28;20136;-83
2022/10/03 03:08:47;;;;;;;13.60;2.33;;;;;;;11.03;100.00;101127.47;5027599;28;20045;-84
2022/10/03 03:11:29;;;;;;;12.05;2.15;;;;;;;10.99;100.00;101130.34;5022925;28;20081;-84
2022/10/03 03:14:03;;;;;;;13.95;3.15;;;;;;;11.04;100.00;101123.06;5024528;28;20512;-83
2022/10/03 03:16:48;;;;;;;19.88;2.72;;;;;;;11.06;100.00;101131.72;5029176;28;20131;-84
2022/10/03 03:19:54;;;;;;;20.85;3.15;;;;;;;11.08;100.00;101141.25;5023014;28;20054;-82
2022/10/03 03:22:42;;;;;;;11.95;2.95;;;;;;;11.03;100.00;101137.13;5043219;28;20064;-84
2022/10/03 03:25:10;;;;;;;25.15;3.08;;;;;;;11.03;100.00;101139.78;5021225;28;20050;-84
2022/10/03 03:28:04;;;;;;;19.67;3.38;;;;;;;10.96;100.00;101134.00;5008418;28;20057;-83
2022/10/03 03:30:46;;;;;;;;;;;;;;;10.99;100.00;101133.00;5031708;28;20057;-83
2022/10/03 03:33:25;;;;;;;11.98;2.45;;;;;;;11.06;100.00;101135.19;5027635;28;20383;-83
2022/10/03 03:36:27;;;;;;;14.60;3.53;;;;;;;10.98;100.00;101137.38;5026013;28;20056;-84
2022/10/03 03:39:23;;;;;;;18.27;2.63;;;;;;;10.99;100.00;101135.63;5042716;28;20068;-83
2022/10/03 03:41:56;;;;;;;26.95;3.30;;;;;;;10.93;100.00;101138.56;5028003;28;20086;-84
2022/10/03 03:44:42;;;;;;;14.90;2.72;;;;;;;10.89;100.00;101130.81;5027964;28;20054;-83
2022/10/03 03:47:33;;;;;;;12.18;2.45;;;;;;;10.93;100.00;101133.28;5014429;28;20083;-84
2022/10/03 03:50:12;;;;;;;12.27;2.65;;;;;;;10.96;100.00;101151.59;5031563;28;20068;-83
2022/10/03 03:52:57;;;;;;;13.73;2.97;;;;;;;10.96;100.00;101154.22;5026763;28;20132;-83
2022/10/03 03:56:01;;;;;;;16.25;2.67;;;;;;;10.96;100.00;101162.97;5029116;28;20499;-82
2022/10/03 03:59:04;;;;;;;17.67;3.35;;;;;;;10.88;100.00;101155.44;5028984;28;20058;-83
2022/10/03 04:01:49;;;;;;;14.07;3.05;;;;;;;10.89;100.00;101164.19;4980801;28;20047;-81
2022/10/03 04:04:29;;;;;;;26.13;3.95;;;;;;;10.94;100.00;101164.81;5048962;28;20079;-82
2022/10/03 04:07:09;;;;;;;18.13;3.42;;;;;;;10.93;100.00;101160.47;5041557;28;20289;-81
2022/10/03 04:09:43;;;;;;;14.25;3.05;;;;;;;10.91;100.00;101170.25;5034467;28;20136;-81
2022/10/03 04:12:38;;;;;;;17.70;3.22;;;;;;;10.88;100.00;101170.41;5036149;28;20092;-82
2022/10/03 04:15:15;;;;;;;11.82;2.78;;;;;;;10.93;100.00;101165.75;5018543;28;20049;-82
2022/10/03 04:21:06;;;;;;;17.67;3.03;;;;;;;10.87;100.00;101171.34;5041197;28;20091;-80
2022/10/03 04:23:49;;;;;;;13.48;2.72;;;;;;;10.87;100.00;101172.19;5023567;28;20055;-83
2022/10/03 04:26:36;;;;;;;19.77;3.00;;;;;;;10.87;100.00;101168.72;5014144;28;20410;-83
2022/10/03 04:30:16;;;;;;;20.05;3.00;;;;;;;10.87;100.00;101171.34;5037432;28;20143;-81
2022/10/03 04:32:59;;;;;;;18.58;2.95;;;;;;;10.90;100.00;101169.41;5012234;28;20124;-84
2022/10/03 04:35:45;;;;;;;18.90;2.80;;;;;;;10.88;100.00;101173.03;5014375;28;20084;-83
2022/10/03 04:38:41;;;;;;;18.35;2.83;;;;;;;10.87;100.00;101172.19;5030279;28;20485;-83
2022/10/03 04:41:28;;;;;;;;;;;;;;;10.87;100.00;101172.19;5035205;28;20079;-83
2022/10/03 04:44:24;;;;;;;16.98;2.85;;;;;;;10.88;100.00;101183.56;5014869;28;19921;-80
2022/10/03 04:47:15;;;;;;;16.35;2.45;;;;;;;10.83;100.00;101178.53;5020767;28;20057;-82
2022/10/03 04:49:51;;;;;;;18.80;2.90;;;;;;;10.79;100.00;101177.00;5011707;28;20073;-83
2022/10/03 04:52:32;;;;;;;16.00;2.35;;;;;;;10.92;100.00;101182.50;5031742;28;20512;-81
2022/10/03 04:55:34;;;;;;;14.63;2.58;;;;;;;10.86;100.00;101185.44;5032224;28;20128;-83
2022/10/03 04:58:40;;;;;;;18.40;2.78;;;;;;;10.88;100.00;101180.94;5023133;28;20058;-83
2022/10/03 05:01:13;;;;;;;17.73;2.72;;;;;;;10.85;100.00;101179.34;4998412;28;20067;-83
2022/10/03 05:03:44;;;;;;;18.05;3.40;;;;;;;10.86;100.00;101182.81;5005982;28;20140;-83
2022/10/03 05:06:29;;;;;;;16.67;2.95;;;;;;;10.90;100.00;101189.63;5048942;28;20046;-83
2022/10/03 05:09:03;;;;;;;20.10;2.78;;;;;;;10.90;100.00;101192.28;5034628;28;20121;-84
2022/10/03 05:12:13;;;;;;;17.65;3.13;;;;;;;10.90;100.00;101192.28;5012232;28;20054;-84
2022/10/03 05:15:07;;;;;;;17.27;2.72;;;;;;;10.94;100.00;101196.41;4982820;28;20068;-82
2022/10/03 05:17:38;;;;;;;14.10;2.58;;;;;;;10.94;100.00;101199.06;5026319;28;20050;-82
2022/10/03 05:20:16;;;;;;;14.38;3.45;;;;;;;10.88;100.00;101194.97;5034305;28;20050;-83
2022/10/03 05:23:19;;;;;;;20.13;4.22;;;;;;;10.92;100.00;101198.31;5031844;28;20057;-82
2022/10/03 05:26:22;;;;;;;17.63;3.00;;;;;;;10.95;100.00;101197.31;4975288;28;20050;-79
2022/10/03 05:29:32;;;;;;;17.33;2.40;;;;;;;10.93;100.00;101205.25;5023111;28;20045;-80
2022/10/03 05:32:19;;;;;;;16.77;4.57;;;;;;;10.85;100.00;101203.03;5048421;28;20084;-80
2022/10/03 05:35:06;;;;;;;22.77;2.80;;;;;;;10.83;100.00;101215.41;5015697;28;20069;-83
2022/10/03 05:37:46;;;;;;;18.17;3.08;;;;;;;10.80;100.00;101212.94;5034213;28;20069;-83
2022/10/03 05:40:19;;;;;;;23.70;3.60;;;;;;;10.83;100.00;101209.31;5042612;28;20121;-84
2022/10/03 05:43:01;;;;;;;21.20;3.92;;;;;;;10.82;100.00;101216.34;5034067;28;20061;-81
2022/10/03 05:46:02;;;;;;;16.33;3.10;;;;;;;10.78;100.00;101224.50;5043043;28;20106;-83
2022/10/03 05:48:47;;;;;;;23.25;3.45;;;;;;;10.84;100.00;101211.00;5028618;28;20121;-81
2022/10/03 05:51:40;;;;;;;25.67;2.97;;;;;;;10.84;100.00;101217.13;5056991;28;20113;-83
2022/10/03 05:55:06;;;;;;;16.58;3.97;;;;;;;10.90;100.00;101226.50;5016597;28;20144;-83
2022/10/03 05:57:43;;;;;;;16.63;2.57;;;;;;;10.93;100.00;101220.22;5036468;28;20053;-84
2022/10/03 06:00:20;;;;;;;;;;;;;;;10.89;100.00;101230.06;5020155;28;20073;-83
2022/10/03 06:02:50;;;;;;;;;;;;;;;10.85;100.00;101226.75;5025608;28;19921;-83
2022/10/03 06:05:31;;;;;;;19.90;2.70;;;;;;;10.91;100.00;101241.38;5036907;28;19929;-83
2022/10/03 06:08:35;;;;;;;17.77;3.03;;;;;;;10.82;100.00;101231.31;5027180;28;20472;-83
2022/10/03 06:11:13;;;;;;;18.85;2.47;;;;;;;10.79;100.00;101231.47;5028643;28;20049;-83
2022/10/03 06:13:46;;;;;;;11.60;2.42;;;;;;;10.81;100.00;101232.25;5029459;28;20045;-83
2022/10/03 06:16:45;;;;;;;19.52;3.13;;;;;;;10.83;100.00;101244.41;5012114;28;20057;-84
2022/10/03 06:19:25;;;;;;;17.98;3.90;;;;;;;10.88;100.00;101245.00;5027319;28;20056;-84
2022/10/03 06:22:26;;;;;;;15.52;2.90;;;;;;;10.89;100.00;101256.41;5028640;28;20413;-84
2022/10/03 06:25:10;;;;;;;13.98;2.40;;;;;;;10.94;100.00;101253.53;5027860;28;20445;-82
2022/10/03 06:28:20;;;;;;;18.20;3.47;;;;;;;10.98;100.00;101255.94;5026207;28;20536;-84
2022/10/03 06:31:27;;;;;;;18.15;2.45;;;;;;;10.97;100.00;101266.56;5008513;28;20151;-84
2022/10/03 06:34:25;;;;;;;14.27;2.80;;;;;;;10.98;100.00;101271.75;5019329;28;20558;-84
2022/10/03 06:37:14;;;;;;;15.63;2.60;;;;;;;10.96;100.00;101270.97;5027416;28;20045;-84
2022/10/03 06:39:53;;;;;;;23.90;3.10;;;;;;;11.01;100.00;101276.00;5027651;28;20044;-84
2022/10/03 06:42:36;;;;;;;18.20;3.30;;;;;;;11.20;100.00;101275.94;5027059;28;20149;-84
2022/10/03 06:45:09;;;;;;;13.80;2.20;;;;;;;11.15;100.00;101282.28;5026369;28;20473;-83
2022/10/03 06:47:50;;;;;;;19.45;2.78;;;;;;;11.11;100.00;101287.78;5011619;28;20042;-83
2022/10/03 06:50:40;;;;;;;15.13;2.60;;;;;;;11.10;100.00;101286.94;5014667;28;20535;-84
2022/10/03 06:53:10;;;;;;;17.50;2.90;;;;;;;11.14;100.00;101292.91;4993808;28;20069;-84
2022/10/03 06:56:03;;;;;;;13.95;2.50;;;;;;;11.14;100.00;101285.00;5026183;28;20053;-84
2022/10/03 06:58:52;;;;;;;15.82;2.90;;;;;;;11.19;100.00;101275.09;5033730;28;20049;-85
2022/10/03 07:01:58;;;;;;;16.55;2.58;;;;;;;11.19;100.00;101279.50;5012948;28;20050;-84
2022/10/03 07:05:04;;;;;;;14.93;3.35;;;;;;;11.23;100.00;101292.44;5042465;28;20115;-83
2022/10/03 07:07:44;;;;;;;14.13;2.55;;;;;;;11.25;100.00;101295.84;5029763;28;20057;-83
2022/10/03 07:10:37;;;;;;;23.50;3.05;;;;;;;11.27;100.00;101295.78;5012572;28;20108;-83
2022/10/03 07:13:20;;;;;;;18.33;3.28;;;;;;;11.45;100.00;101297.47;5028449;28;20076;-83
2022/10/03 07:16:10;;;;;;;18.38;2.95;;;;;;;11.47;100.00;101306.13;5028672;28;20106;-82
2022/10/03 07:19:08;;;;;;;15.82;2.63;;;;;;;11.44;100.00;101314.22;5017849;28;20053;-84
2022/10/03 07:21:58;;;;;;;16.92;2.88;;;;;;;11.53;98.29;101313.75;5032971;28;20154;-80
2022/10/03 07:24:43;;;;;;;11.52;2.40;;;;;;;11.57;98.62;101312.66;5046110;28;20077;-83
2022/10/03 07:27:23;;;;;;;21.13;3.15;;;;;;;11.50;98.43;101316.53;5030050;28;20089;-83
2022/10/03 07:30:17;;;;;;;14.10;3.03;;;;;;;11.64;97.90;101321.09;5002974;28;20049;-84
2022/10/03 07:32:53;;;;;;;16.65;3.33;;;;;;;11.64;97.74;101326.38;5028543;28;20141;-82
2022/10/03 07:38:57;;;;;;;19.25;2.58;;;;;;;11.68;97.37;101327.06;5024887;28;20069;-84
2022/10/03 07:41:43;;;;;;;18.83;3.72;;;;;;;11.77;96.60;101337.13;5020967;28;20488;-82
2022/10/03 07:44:32;;;;;;;14.98;2.75;;;;;;;11.75;96.74;101341.63;5029378;28;20132;-82
2022/10/03 07:47:37;;;;;;;14.13;3.25;;;;;;;11.81;95.57;101322.84;5016013;28;20147;-83
2022/10/03 07:50:40;;;;;;;19.30;3.63;;;;;;;11.80;95.71;101342.25;5030553;28;20129;-83
2022/10/03 07:53:56;;;;;;;22.90;2.83;;;;;;;11.91;95.10;101337.28;5031630;28;20109;-82
2022/10/03 07:56:50;;;;;;;20.48;3.25;;;;;;;11.99;93.44;101344.81;5018256;28;20053;-82
2022/10/03 07:59:59;;;;;;;18.17;2.22;;;;;;;11.95;93.00;101352.03;5024900;28;20076;-83
2022/10/03 08:02:45;;;;;;;17.45;2.80;;;;;;;11.94;92.80;101346.84;5022070;28;20061;-81
2022/10/03 08:05:24;;;;;;;18.65;2.53;;;;;;;11.90;92.43;101359.34;5046561;28;20136;-83
2022/10/03 08:08:08;;;;;;;15.38;2.88;;;;;;;11.94;92.02;101342.41;5027750;28;20046;-83
2022/10/03 08:11:07;;;;;;;16.27;3.25;;;;;;;11.98;92.38;101366.81;5032430;28;20103;-82
2022/10/03 08:14:45;;;;;;;13.18;2.58;;;;;;;12.06;91.43;101364.63;5019557;28;20060;-83
2022/10/03 08:17:12;;;;;;;;;;;;;;;12.06;91.43;101368.13;4947870;28;20133;-84
2022/10/03 08:19:56;;;;;;;16.42;3.28;;;;;;;12.12;91.64;101377.53;4947433;28;19945;-84
2022/10/03 08:22:45;;;;;;;13.35;2.97;;;;;;;12.13;90.49;101369.50;4990894;28;20071;-83
2022/10/03 08:25:34;;;;;;;21.65;3.17;;;;;;;12.15;90.25;101372.06;5021119;28;20051;-84
2022/10/03 08:28:16;;;;;;;16.92;3.10;;;;;;;12.18;90.20;101373.69;5046488;28;20079;-84
2022/10/03 08:31:03;;;;;;;17.27;3.67;;;;;;;12.30;89.92;101380.97;5021254;28;20062;-84
2022/10/03 08:33:40;;;;;;;18.92;2.88;;;;;;;12.27;89.63;101381.13;5029224;28;20111;-84
2022/10/03 08:36:23;;;;;;;23.67;2.75;;;;;;;12.37;89.81;101382.31;5023032;28;20316;-82
2022/10/03 08:39:09;;;;;;;19.35;3.45;;;;;;;12.33;89.68;101386.06;5018199;28;20141;-82
2022/10/03 08:42:04;;;;;;;20.83;3.45;;;;;;;12.38;89.18;101384.91;5033774;28;20041;-82
2022/10/03 08:48:34;;;;;;;;;;;;;;;12.50;87.95;101382.50;5036866;28;20681;-82
2022/10/03 08:51:07;;;;;;;14.75;3.22;;;;;;;12.52;87.67;101388.53;5017260;28;19928;-81
2022/10/03 08:53:50;;;;;;;16.63;3.05;;;;;;;12.62;85.86;101397.69;5030577;28;20060;-83
2022/10/03 08:56:21;;;;;;;14.25;2.33;;;;;;;12.52;85.74;101397.34;4994132;28;20073;-83
2022/10/03 08:59:13;;;;;;;16.88;3.30;;;;;;;12.49;86.18;101394.88;4998848;28;20085;-82
2022/10/03 09:02:08;;;;;;;19.17;2.63;;;;;;;12.59;85.59;101395.22;5008586;28;20073;-82
2022/10/03 09:04:54;;;;;;;14.18;2.55;;;;;;;12.61;85.11;101393.34;5013603;28;20497;-82
2022/10/03 09:07:30;;;;;;;15.55;2.67;;;;;;;12.73;85.55;101397.09;5044306;28;20060;-83
2022/10/03 09:10:08;;;;;;;17.33;3.58;;;;;;;12.73;84.71;101394.44;5011487;28;20080;-83
2022/10/03 09:13:09;;;;;;;13.35;2.38;;;;;;;12.76;85.53;101395.13;5026371;28;20084;-83
2022/10/03 09:16:07;;;;;;;15.50;2.60;;;;;;;12.87;85.15;101399.81;5030926;28;20690;-85
2022/10/03 09:18:55;;;;;;;15.57;2.70;;;;;;;13.05;83.66;101396.13;5028193;28;20104;-82
2022/10/03 09:21:38;;;;;;;19.10;3.55;;;;;;;13.05;83.36;101384.69;5026188;28;20133;-81
2022/10/03 09:24:43;;;;;;;17.88;3.28;;;;;;;13.04;83.62;101388.28;5016706;28;20060;-84
2022/10/03 09:27:30;;;;;;;19.35;3.55;;;;;;;13.04;82.82;101389.13;5029780;28;20085;-84
2022/10/03 09:30:14;;;;;;;18.73;2.67;;;;;;;13.00;82.80;101389.41;5032888;28;20037;-84
2022/10/03 09:33:02;;;;;;;15.38;2.38;;;;;;;13.13;83.30;101398.34;4992777;28;20052;-84
2022/10/03 09:35:29;;;;;;;15.20;2.85;;;;;;;13.23;83.25;101401.31;5011783;28;20072;-83
2022/10/03 09:38:29;;;;;;;17.70;3.38;;;;;;;13.40;82.26;101391.47;5032923;28;20075;-84
2022/10/03 09:41:31;;;;;;;20.00;3.40;;;;;;;13.41;81.50;101408.19;5008856;28;20041;-84
2022/10/03 09:44:29;;;;;;;15.70;2.78;;;;;;;13.46;81.33;101400.00;5013447;28;20053;-84
2022/10/03 09:47:27;;;;;;;14.98;2.45;;;;;;;13.57;81.48;101400.22;5009650;28;20049;-84
2022/10/03 09:50:28;;;;;;;23.30;3.30;;;;;;;13.67;80.06;101393.44;5030555;28;20560;-83
2022/10/03 09:53:01;;;;;;;16.02;3.38;;;;;;;13.76;80.36;101398.19;5026867;28;20141;-82
2022/10/03 09:56:01;;;;;;;16.60;3.10;;;;;;;13.81;78.87;101403.19;5025457;28;20056;-84
2022/10/03 09:59:00;;;;;;;13.10;2.97;;;;;;;13.90;78.53;101405.28;5010943;28;20096;-84
2022/10/03 10:01:50;;;;;;;13.20;2.80;;;;;;;13.86;78.13;101407.25;5025133;28;20054;-83
2022/10/03 10:04:39;;;;;;;15.07;3.25;;;;;;;13.80;78.77;101412.94;5028414;28;20061;-84
2022/10/03 10:07:40;;;;;;;18.85;2.92;;;;;;;13.76;78.32;101407.91;5031413;28;20058;-83
2022/10/03 10:10:37;;;;;;;13.85;2.33;;;;;;;13.69;77.99;101415.38;5012142;28;20057;-84
2022/10/03 10:13:15;;;;;;;16.65;2.60;;;;;;;13.61;78.91;101404.41;5003708;28;20041;-83
2022/10/03 10:15:45;;;;;;;23.15;3.42;;;;;;;13.63;78.60;101403.34;5029376;28;20133;-84
2022/10/03 10:18:31;;;;;;;14.55;2.65;;;;;;;13.71;78.21;101405.53;5028660;28;20678;-83
2022/10/03 10:21:29;;;;;;;11.35;2.47;;;;;;;13.82;78.62;101405.75;5027082;28;20063;-82
2022/10/03 10:24:13;;;;;;;17.92;2.78;;;;;;;13.89;78.23;101406.25;5029107;28;20560;-82
2022/10/03 10:26:55;;;;;;;12.73;2.50;;;;;;;14.04;77.47;101401.81;5017051;28;20050;-83
2022/10/03 10:29:29;;;;;;;13.80;2.60;;;;;;;14.15;76.57;101402.84;5032223;28;20464;-82
2022/10/03 10:32:05;;;;;;;18.73;3.33;;;;;;;14.18;76.67;101401.81;5031107;28;20513;-83
2022/10/03 10:34:35;;;;;;;15.55;2.70;;;;;;;14.37;76.76;101398.88;5024764;28;20045;-83
2022/10/03 10:37:33;;;;;;;14.77;2.58;;;;;;;14.56;76.27;101402.09;5025439;28;20081;-83
2022/10/03 10:40:28;;;;;;;17.42;2.80;;;;;;;14.77;75.54;101389.31;5001181;28;20133;-83
2022/10/03 10:43:28;;;;;;;17.23;3.42;;;;;;;14.78;75.54;101400.75;5025860;28;20081;-83
2022/10/03 10:46:37;;;;;;;16.58;2.60;;;;;;;14.53;75.38;101398.78;5012439;28;20048;-83
2022/10/03 10:49:37;;;;;;;11.20;2.85;;;;;;;14.58;76.09;101396.69;5015595;28;20060;-84
2022/10/03 10:52:39;;;;;;;13.65;2.60;;;;;;;14.71;75.87;101402.91;5026295;28;20080;-83
2022/10/03 10:55:24;;;;;;;14.60;3.25;;;;;;;14.76;74.89;101397.31;5020173;28;20191;-84
2022/10/03 10:58:26;;;;;;;12.68;2.83;;;;;;;14.80;74.95;101388.22;5028807;28;20063;-83
2022/10/03 11:01:27;;;;;;;16.45;3.78;;;;;;;15.02;73.52;101385.88;5026857;28;20079;-83
2022/10/03 11:04:23;;;;;;;15.30;2.75;;;;;;;15.09;72.23;101386.34;5004477;28;20476;-84
2022/10/03 11:07:29;;;;;;;15.38;2.65;;;;;;;15.08;72.07;101385.47;5028574;28;20145;-83
2022/10/03 11:10:30;;;;;;;12.40;2.38;;;;;;;15.02;72.16;101398.31;5025468;28;20524;-84
2022/10/03 11:13:00;;;;;;;10.48;2.30;;;;;;;14.90;73.07;101398.16;5023559;28;20057;-84
2022/10/03 11:15:58;;;;;;;11.38;2.28;;;;;;;14.96;73.49;101404.00;5026802;28;20436;-84
2022/10/03 11:18:58;;;;;;;12.90;2.28;;;;;;;14.94;74.35;101401.44;5022465;28;20544;-83
2022/10/03 11:21:49;;;;;;;16.38;3.13;;;;;;;14.92;74.50;101403.34;5025661;28;20046;-85
2022/10/03 11:24:54;;;;;;;9.93;1.98;;;;;;;15.05;74.96;101391.00;5028312;28;20067;-85
2022/10/03 11:27:56;;;;;;;10.10;2.10;;;;;;;15.14;73.95;101405.47;5029870;28;20075;-83
2022/10/03 11:30:59;;;;;;;14.15;2.58;;;;;;;15.22;73.45;101408.47;5022970;28;20500;-83
2022/10/03 11:33:57;;;;;;;12.63;2.38;;;;;;;15.08;73.16;101403.19;5019682;28;20065;-84
2022/10/03 11:37:02;;;;;;;11.85;2.55;;;;;;;15.14;74.19;101411.63;5038940;28;20080;-84
2022/10/03 11:39:32;;;;;;;9.05;1.92;;;;;;;15.20;74.18;101405.03;5018938;28;21092;-83
2022/10/03 11:42:15;;;;;;;9.30;2.15;;;;;;;15.06;75.60;101421.03;5019158;28;20052;-81
2022/10/03 11:45:03;;;;;;;14.05;2.50;;;;;;;14.93;77.38;101420.97;5020984;28;20413;-84
2022/10/03 11:48:16;;;;;;;9.10;2.13;;;;;;;14.97;78.44;101397.75;5017381;28;20450;-83
2022/10/03 11:50:50;;;;;;;15.38;2.80;;;;;;;15.12;78.47;101410.00;4991245;28;20069;-84
2022/10/03 11:53:33;;;;;;;10.73;2.28;;;;;;;15.26;78.47;101395.81;4988614;28;20096;-85
2022/10/03 11:56:17;;;;;;;13.23;2.05;;;;;;;15.33;77.55;101399.78;4996178;28;20131;-84
2022/10/03 11:59:13;;;;;;;9.68;1.77;;;;;;;15.28;77.60;101408.06;5021044;28;20049;-85
2022/10/03 12:02:10;;;;;;;9.82;1.98;;;;;;;15.22;78.08;101402.28;5031617;28;20088;-84
2022/10/03 12:04:45;;;;;;;9.35;1.98;;;;;;;15.16;78.08;101400.91;5033431;28;20486;-84
2022/10/03 12:10:46;;;;;;;19.58;2.53;;;;;;;15.34;76.64;101391.72;5037917;28;20051;-83
2022/10/03 12:13:39;;;;;;;7.05;1.90;;;;;;;15.40;76.95;101383.38;5014660;28;20088;-85
2022/10/03 12:16:18;;;;;;;11.40;2.22;;;;;;;15.29;77.32;101387.69;5009431;28;20050;-84
2022/10/03 12:18:47;;;;;;;17.70;2.38;;;;;;;15.41;77.32;101392.16;5016306;28;20061;-84
2022/10/03 12:21:21;;;;;;;7.65;2.15;;;;;;;15.23;77.31;101382.78;5048411;28;20129;-84
2022/10/03 12:24:23;;;;;;;9.77;2.38;;;;;;;15.67;76.42;101383.34;5032722;28;20078;-84
2022/10/03 12:27:20;;;;;;;11.60;2.80;;;;;;;16.11;73.87;101382.03;5010991;28;20041;-84
2022/10/03 12:29:58;;;;;;;13.88;2.40;;;;;;;16.53;73.48;101381.78;5017281;28;20053;-81
2022/10/03 12:32:48;;;;;;;10.82;2.30;;;;;;;17.01;71.36;101392.47;4996376;28;20049;-83
2022/10/03 12:35:31;;;;;;;12.48;2.42;;;;;;;17.41;67.69;101385.88;5050011;28;20140;-84
2022/10/03 12:38:17;;;;;;;16.85;2.58;;;;;;;17.37;67.70;101388.88;5026616;28;20060;-83
2022/10/03 12:41:09;;;;;;;11.18;2.63;;;;;;;17.40;67.26;101394.84;5026395;28;20160;-85
2022/10/03 12:43:39;;;;;;;12.65;2.03;;;;;;;17.70;67.23;101385.50;5022903;28;20545;-84
2022/10/03 12:46:15;;;;;;;11.23;2.60;;;;;;;17.69;66.10;101389.09;5030810;28;20516;-85
2022/10/03 12:49:05;;;;;;;8.13;2.75;;;;;;;17.68;67.55;101377.59;5011163;28;20046;-84
2022/10/03 12:51:38;;;;;;;12.60;2.33;;;;;;;17.38;66.87;101380.81;5015247;28;20105;-84
2022/10/03 12:54:25;;;;;;;7.72;1.88;;;;;;;17.07;67.32;101381.41;5009634;28;20073;-84
2022/10/03 12:57:23;;;;;;;11.93;2.40;;;;;;;16.99;68.20;101381.97;5044652;28;20060;-84
2022/10/03 13:00:13;;;;;;;13.15;2.78;;;;;;;17.00;67.77;101375.69;5046089;28;20537;-83
2022/10/03 13:03:05;;;;;;;12.27;2.65;;;;;;;17.54;66.58;101366.31;5003534;28;20107;-84
2022/10/03 13:05:42;;;;;;;11.13;2.30;;;;;;;17.85;65.68;101376.34;5025907;28;20461;-85
2022/10/03 13:08:37;;;;;;;14.70;2.92;;;;;;;18.01;64.50;101369.81;5030975;28;20057;-84